Time;durP1;ratioP1;P1;durP2;ratioP2;P2;SDS_P1;SDS_P2;PMS_P1;PMS_P2;Temp;Humidity;BMP_temperature;BMP_pressure;BME280_temperature;BME280_humidity;BME280_pressure;Samples;Min_cycle;Max_cycle;Signal;HPM_P1;HPM_P2
2022/01/30 00:01:08;;;;;;;22.05;4.63;;;;;;;4.56;82.44;102539.84;5031524;28;20057;-82
2022/01/30 00:03:34;;;;;;;24.13;4.30;;;;;;;4.57;82.32;102542.50;5028930;28;20037;-82
2022/01/30 00:05:59;;;;;;;17.58;5.10;;;;;;;4.55;82.23;102549.50;5031736;28;20044;-82
2022/01/30 00:08:24;;;;;;;25.25;4.85;;;;;;;4.50;82.61;102546.84;5031048;28;20113;-82
2022/01/30 00:10:56;;;;;;;23.95;5.43;;;;;;;4.47;81.93;102549.50;5031821;28;20387;-82
2022/01/30 00:13:24;;;;;;;24.05;5.85;;;;;;;4.45;82.79;102564.44;5029144;28;20037;-82
2022/01/30 00:15:53;;;;;;;20.65;5.70;;;;;;;4.39;83.09;102564.44;5031131;28;20025;-82
2022/01/30 00:21:05;;;;;;;22.80;4.70;;;;;;;4.32;83.02;102565.28;5031843;28;20061;-83
2022/01/30 00:23:32;;;;;;;31.08;6.13;;;;;;;4.30;82.87;102555.59;5028488;28;20116;-83
2022/01/30 00:25:58;;;;;;;19.38;5.28;;;;;;;4.29;83.00;102567.91;5031412;28;20446;-82
2022/01/30 00:28:26;;;;;;;24.98;6.65;;;;;;;4.27;83.04;102569.69;5030652;28;20382;-82
2022/01/30 00:30:55;;;;;;;18.60;4.43;;;;;;;4.23;83.12;102566.16;5031518;28;20026;-82
2022/01/30 00:33:20;;;;;;;22.58;5.07;;;;;;;4.21;83.32;102559.09;5028854;28;20030;-83
2022/01/30 00:35:45;;;;;;;21.35;5.07;;;;;;;4.19;83.29;102571.41;5012154;28;20037;-84
2022/01/30 00:38:16;;;;;;;17.65;5.30;;;;;;;4.16;83.27;102576.66;5030367;28;20053;-82
2022/01/30 00:40:42;;;;;;;21.05;4.45;;;;;;;4.15;83.34;102580.19;5029112;28;20060;-83
2022/01/30 00:43:08;;;;;;;24.67;5.60;;;;;;;4.15;83.56;102582.81;5028463;28;20104;-82
2022/01/30 00:45:34;;;;;;;20.45;5.75;;;;;;;4.11;83.50;102581.03;5030721;28;20483;-82
2022/01/30 00:47:59;;;;;;;21.75;4.97;;;;;;;4.09;83.44;102580.16;5030694;28;20120;-82
2022/01/30 00:50:25;;;;;;;25.13;5.57;;;;;;;4.02;83.76;102559.94;5030358;28;20120;-82
2022/01/30 00:52:53;;;;;;;26.05;5.95;;;;;;;4.04;83.73;102574.84;5028332;28;20025;-82
2022/01/30 00:55:20;;;;;;;22.65;4.85;;;;;;;4.04;83.78;102571.34;5022026;28;20026;-83
2022/01/30 00:57:45;;;;;;;29.05;5.80;;;;;;;3.99;83.82;102576.59;5016137;28;20025;-82
2022/01/30 01:00:11;;;;;;;24.55;5.38;;;;;;;3.94;83.73;102558.16;5031021;28;20156;-82
2022/01/30 01:02:37;;;;;;;25.77;5.53;;;;;;;4.00;83.89;102579.22;5028198;28;20029;-82
2022/01/30 01:05:05;;;;;;;24.60;5.53;;;;;;;4.04;83.74;102581.88;5029774;28;20071;-82
2022/01/30 01:07:32;;;;;;;21.00;5.20;;;;;;;3.97;84.04;102584.50;5030264;28;20097;-82
2022/01/30 01:10:08;;;;;;;18.40;5.55;;;;;;;3.89;83.80;102591.50;5030676;28;20048;-82
2022/01/30 01:12:52;;;;;;;25.20;5.93;;;;;;;3.91;83.95;102597.63;5028008;28;20018;-82
2022/01/30 01:20:57;;;;;;;20.88;5.50;;;;;;;3.87;84.38;102602.88;5030603;28;20033;-83
2022/01/30 01:23:27;;;;;;;26.25;5.32;;;;;;;3.77;84.69;102603.72;5027805;28;20034;-82
2022/01/30 01:25:57;;;;;;;28.75;5.13;;;;;;;3.72;84.91;102583.50;5030291;28;20056;-82
2022/01/30 01:28:23;;;;;;;25.20;5.43;;;;;;;3.69;85.23;102590.50;5030061;28;20041;-82
2022/01/30 01:30:49;;;;;;;26.33;4.57;;;;;;;3.64;85.14;102590.50;5030541;28;20032;-83
2022/01/30 01:33:15;;;;;;;26.58;5.65;;;;;;;3.64;85.37;102605.41;5027291;28;20406;-82
2022/01/30 01:35:40;;;;;;;24.23;5.20;;;;;;;3.59;85.32;102613.25;5027842;28;20671;-83
2022/01/30 01:38:10;;;;;;;28.13;5.65;;;;;;;3.47;85.66;102595.66;5030027;28;20025;-84
2022/01/30 01:40:36;;;;;;;32.65;5.43;;;;;;;3.53;85.96;102618.50;5030170;28;20065;-83
2022/01/30 01:43:02;;;;;;;21.02;5.28;;;;;;;3.48;86.01;102615.84;5027279;28;20217;-83
2022/01/30 01:45:33;;;;;;;23.30;5.50;;;;;;;3.44;86.28;102616.69;5029893;28;20109;-83
2022/01/30 01:48:02;;;;;;;26.42;6.13;;;;;;;3.41;86.51;102619.28;5029571;28;20030;-83
2022/01/30 01:50:38;;;;;;;21.50;4.90;;;;;;;3.37;86.90;102614.88;5028728;28;20076;-82
2022/01/30 01:53:09;;;;;;;23.65;5.40;;;;;;;3.32;87.14;102611.34;5014425;28;20124;-83
2022/01/30 01:55:36;;;;;;;20.77;4.80;;;;;;;3.27;87.30;102612.19;5029526;28;20513;-83
2022/01/30 01:58:02;;;;;;;24.55;5.95;;;;;;;3.29;87.38;102615.69;5029649;28;20017;-83
2022/01/30 02:00:27;;;;;;;14.93;4.75;;;;;;;3.27;87.65;102618.31;5029883;28;20087;-83
2022/01/30 02:02:54;;;;;;;18.13;5.15;;;;;;;3.32;87.49;102610.44;5026004;28;20025;-82
2022/01/30 02:05:19;;;;;;;21.75;5.13;;;;;;;3.30;86.99;102604.28;5028524;28;20108;-82
2022/01/30 02:10:25;;;;;;;25.75;5.35;;;;;;;3.36;87.01;102607.84;5029577;28;20439;-82
2022/01/30 02:12:54;;;;;;;18.77;5.00;;;;;;;3.35;86.79;102607.84;5027626;28;20029;-83
2022/01/30 02:26:01;;;;;;;;;;;;;;;3.35;86.76;102595.56;5017116;28;20066;-82
2022/01/30 02:28:30;;;;;;;20.00;5.10;;;;;;;3.34;87.17;102593.78;5029279;28;19924;-82
2022/01/30 02:31:03;;;;;;;22.95;5.05;;;;;;;3.30;87.21;102602.53;5029218;28;20033;-82
2022/01/30 02:33:28;;;;;;;23.95;5.13;;;;;;;3.31;87.30;102603.44;5024766;28;20088;-82
2022/01/30 02:35:53;;;;;;;24.52;4.82;;;;;;;3.37;87.17;102608.72;5028131;28;20026;-82
2022/01/30 02:38:23;;;;;;;25.27;4.40;;;;;;;3.39;87.09;102613.16;5027745;28;20491;-82
2022/01/30 02:40:50;;;;;;;25.02;4.38;;;;;;;3.36;86.91;102605.22;5029064;28;20378;-82
2022/01/30 02:43:20;;;;;;;27.13;5.68;;;;;;;3.44;86.66;102607.91;5027380;28;20749;-82
2022/01/30 02:45:58;;;;;;;25.50;5.18;;;;;;;3.39;86.80;102597.34;5010799;28;20475;-82
2022/01/30 02:48:31;;;;;;;29.90;4.50;;;;;;;3.37;86.60;102593.81;5028095;28;20035;-82
2022/01/30 02:51:09;;;;;;;21.95;5.25;;;;;;;3.42;86.71;102593.84;5029110;28;20037;-82
2022/01/30 02:53:39;;;;;;;30.55;4.68;;;;;;;3.31;86.72;102588.53;5019928;28;20045;-83
2022/01/30 02:56:04;;;;;;;23.48;4.57;;;;;;;3.28;87.14;102592.88;5028160;28;20088;-83
2022/01/30 02:58:30;;;;;;;19.85;5.05;;;;;;;3.23;87.17;102603.38;5028212;28;20029;-82
2022/01/30 03:00:55;;;;;;;23.25;4.80;;;;;;;3.15;87.81;102599.78;5028708;28;20101;-83
2022/01/30 03:03:20;;;;;;;25.80;5.07;;;;;;;3.16;87.96;102599.78;5007481;28;20087;-82
2022/01/30 03:05:45;;;;;;;32.78;6.65;;;;;;;3.09;87.91;102605.00;5028062;28;20496;-82
2022/01/30 03:08:11;;;;;;;26.70;5.47;;;;;;;3.08;88.14;102629.53;5028795;28;20029;-82
2022/01/30 03:10:36;;;;;;;23.73;5.38;;;;;;;3.03;88.51;102623.38;5028428;28;20064;-82
2022/01/30 03:13:01;;;;;;;23.80;5.10;;;;;;;2.98;88.63;102626.84;5025106;28;20036;-82
2022/01/30 03:15:27;;;;;;;21.58;4.60;;;;;;;2.94;88.56;102629.44;5027744;28;20037;-82
2022/01/30 03:17:52;;;;;;;21.45;4.72;;;;;;;2.87;88.96;102631.13;5027924;28;20471;-82
2022/01/30 03:20:17;;;;;;;25.65;5.07;;;;;;;2.94;89.27;102629.44;5028580;28;20029;-83
2022/01/30 03:22:42;;;;;;;21.70;4.93;;;;;;;2.91;89.01;102640.78;5026154;28;20025;-82
2022/01/30 03:25:08;;;;;;;21.65;4.28;;;;;;;2.89;89.19;102641.66;5027846;28;20033;-83
2022/01/30 03:27:33;;;;;;;18.50;6.22;;;;;;;2.88;89.19;102645.13;5027636;28;20025;-83
2022/01/30 03:30:06;;;;;;;30.52;4.72;;;;;;;2.90;89.44;102643.41;5027499;28;20583;-82
2022/01/30 03:32:32;;;;;;;30.20;5.13;;;;;;;2.91;89.56;102653.06;5024929;28;20030;-82
2022/01/30 03:34:58;;;;;;;30.95;5.10;;;;;;;3.02;89.51;102658.44;5024791;28;20033;-82
2022/01/30 03:37:23;;;;;;;28.48;5.20;;;;;;;3.16;89.29;102652.41;5028131;28;20037;-83
2022/01/30 03:39:49;;;;;;;23.08;5.25;;;;;;;3.28;88.87;102667.44;5028070;28;20098;-82
2022/01/30 03:42:14;;;;;;;23.38;4.47;;;;;;;3.37;88.72;102667.50;5026096;28;20029;-83
2022/01/30 03:44:39;;;;;;;19.95;5.20;;;;;;;3.45;88.17;102667.56;5026227;28;20048;-83
2022/01/30 03:47:05;;;;;;;27.38;4.70;;;;;;;3.53;88.29;102675.53;5027284;28;20034;-83
2022/01/30 03:49:31;;;;;;;28.85;4.68;;;;;;;3.62;87.49;102689.66;5027364;28;20029;-82
2022/01/30 03:51:57;;;;;;;27.23;5.18;;;;;;;3.67;87.59;102684.41;5027116;28;20168;-83
2022/01/30 03:54:22;;;;;;;28.92;5.03;;;;;;;3.70;87.25;102689.72;5024603;28;20486;-82
2022/01/30 03:56:47;;;;;;;23.52;4.60;;;;;;;3.77;86.83;102693.28;5027745;28;20029;-82
2022/01/30 03:59:12;;;;;;;18.02;4.70;;;;;;;3.80;86.57;102693.28;5010461;28;20021;-83
2022/01/30 04:01:38;;;;;;;22.70;4.20;;;;;;;3.81;86.39;102690.66;5027669;28;20471;-83
2022/01/30 04:04:03;;;;;;;22.73;4.78;;;;;;;3.82;86.38;102686.28;5024920;28;20040;-83
2022/01/30 04:06:29;;;;;;;20.77;4.13;;;;;;;3.83;86.12;102693.31;5027484;28;20033;-83
2022/01/30 04:08:54;;;;;;;21.42;4.57;;;;;;;3.83;86.17;102703.84;5027661;28;20104;-83
2022/01/30 04:11:20;;;;;;;29.23;5.15;;;;;;;3.83;86.16;102702.09;5027816;28;20032;-83
2022/01/30 04:13:45;;;;;;;22.42;4.82;;;;;;;3.81;85.95;102688.03;5024689;28;20483;-83
2022/01/30 04:16:11;;;;;;;26.15;5.25;;;;;;;3.88;85.79;102702.09;5026820;28;20497;-82
2022/01/30 04:18:36;;;;;;;25.15;4.90;;;;;;;3.88;85.51;102704.75;5027361;28;20029;-82
2022/01/30 04:21:01;;;;;;;23.05;5.53;;;;;;;3.90;85.35;102703.03;5027611;28;20052;-82
2022/01/30 04:23:27;;;;;;;19.90;4.25;;;;;;;3.94;84.99;102704.81;5025336;28;20029;-82
2022/01/30 04:25:52;;;;;;;20.60;5.30;;;;;;;3.95;84.68;102703.91;5027088;28;20068;-82
2022/01/30 04:28:19;;;;;;;28.40;5.18;;;;;;;3.92;84.87;102699.50;5028362;28;20491;-83
2022/01/30 04:30:45;;;;;;;26.13;4.90;;;;;;;3.97;84.72;102704.78;5027103;28;20036;-82
2022/01/30 04:33:10;;;;;;;19.10;4.32;;;;;;;3.97;84.59;102699.53;5007216;28;20368;-82
2022/01/30 04:35:36;;;;;;;24.60;5.65;;;;;;;4.02;84.58;102715.41;5026865;28;20049;-82
2022/01/30 05:02:31;;;;;;;25.02;5.07;;;;;;;4.01;84.44;102735.56;5029888;28;20036;-83
2022/01/30 05:05:10;;;;;;;24.27;4.13;;;;;;;3.99;84.90;102725.03;5029559;28;20061;-83
2022/01/30 05:07:38;;;;;;;21.70;4.78;;;;;;;3.87;85.74;102730.22;5028244;28;20025;-83
2022/01/30 05:10:04;;;;;;;22.95;4.07;;;;;;;3.74;86.40;102742.41;5030496;28;20364;-83
2022/01/30 05:12:37;;;;;;;21.98;5.43;;;;;;;3.60;86.97;102745.81;5028181;28;20084;-82
2022/01/30 05:15:03;;;;;;;21.67;5.10;;;;;;;3.44;86.72;102744.78;5029835;28;20033;-83
2022/01/30 05:17:28;;;;;;;18.63;4.28;;;;;;;3.32;86.96;102745.56;5030684;28;20359;-83
2022/01/30 05:19:54;;;;;;;24.48;5.72;;;;;;;3.17;87.72;102748.91;5029798;28;20025;-83
2022/01/30 05:22:19;;;;;;;29.58;5.07;;;;;;;3.15;87.57;102755.91;5027610;28;20037;-83
2022/01/30 05:24:45;;;;;;;26.13;4.90;;;;;;;3.08;87.79;102746.19;5029645;28;20028;-83
2022/01/30 05:27:11;;;;;;;19.50;5.20;;;;;;;3.00;87.92;102755.75;5029430;28;20037;-83
2022/01/30 05:29:36;;;;;;;19.48;4.88;;;;;;;2.93;88.11;102753.94;5030534;28;20026;-83
2022/01/30 05:32:02;;;;;;;26.48;4.60;;;;;;;2.92;87.97;102754.78;5027388;28;20053;-83
2022/01/30 05:34:28;;;;;;;20.92;4.35;;;;;;;2.87;88.12;102759.97;5022570;28;20026;-83
2022/01/30 05:36:56;;;;;;;20.77;4.35;;;;;;;2.85;88.24;102761.72;5029570;28;20029;-83
2022/01/30 05:39:22;;;;;;;22.20;4.65;;;;;;;2.83;88.37;102766.06;5029928;28;20502;-83
2022/01/30 05:41:47;;;;;;;23.63;4.53;;;;;;;2.82;88.17;102771.31;5027900;28;20029;-83
2022/01/30 05:44:18;;;;;;;18.90;5.15;;;;;;;2.78;88.19;102762.50;5028943;28;20499;-83
2022/01/30 05:46:51;;;;;;;23.08;4.72;;;;;;;2.73;88.28;102762.47;5029891;28;20021;-83
2022/01/30 05:49:17;;;;;;;16.40;3.88;;;;;;;2.69;88.26;102755.41;5030266;28;20037;-83
2022/01/30 05:51:42;;;;;;;28.00;5.25;;;;;;;2.70;88.46;102761.53;5028120;28;20021;-82
2022/01/30 05:54:08;;;;;;;21.35;3.75;;;;;;;2.71;88.56;102763.28;5025495;28;20068;-83
2022/01/30 05:56:33;;;;;;;19.88;4.15;;;;;;;2.69;88.36;102762.41;5028873;28;20096;-82
2022/01/30 05:58:59;;;;;;;19.80;4.28;;;;;;;2.65;88.14;102769.38;5029595;28;20040;-83
2022/01/30 06:01:25;;;;;;;16.92;3.78;;;;;;;2.58;88.33;102771.88;5029830;28;20053;-82
2022/01/30 06:03:50;;;;;;;23.77;4.40;;;;;;;2.53;88.64;102770.97;5027587;28;20053;-83
2022/01/30 06:06:15;;;;;;;25.35;5.07;;;;;;;2.52;88.92;102774.47;5028924;28;20041;-83
2022/01/30 06:09:18;;;;;;;22.38;4.18;;;;;;;2.45;88.87;102779.63;5029033;28;20025;-83
2022/01/30 06:11:26;;;;;;;20.90;4.00;;;;;;;2.40;89.07;102777.78;5028014;28;20041;-83
2022/01/30 06:13:51;;;;;;;19.85;4.13;;;;;;;2.37;89.46;102781.25;5025656;28;20026;-82
2022/01/30 06:16:16;;;;;;;24.13;4.35;;;;;;;2.36;89.59;102781.25;5029344;28;20065;-82
2022/01/30 06:18:43;;;;;;;17.38;4.10;;;;;;;2.35;89.49;102790.88;5029276;28;20383;-82
2022/01/30 06:21:08;;;;;;;23.70;4.47;;;;;;;2.33;89.50;102786.44;5010805;28;20486;-82
2022/01/30 06:23:36;;;;;;;23.42;4.72;;;;;;;2.30;89.41;102775.88;5025558;28;20036;-82
2022/01/30 06:26:01;;;;;;;25.83;4.57;;;;;;;2.33;89.45;102791.69;5028407;28;20037;-82
2022/01/30 06:28:26;;;;;;;21.98;4.25;;;;;;;2.28;89.27;102782.88;5029061;28;20447;-82
2022/01/30 06:30:51;;;;;;;22.63;4.30;;;;;;;2.24;89.37;102780.19;5029267;28;20045;-83
2022/01/30 06:33:17;;;;;;;18.40;3.85;;;;;;;2.19;89.44;102781.88;5026235;28;20536;-83
2022/01/30 06:35:42;;;;;;;18.75;4.10;;;;;;;2.20;89.47;102778.38;5028909;28;20029;-83
2022/01/30 06:38:07;;;;;;;23.00;4.85;;;;;;;2.24;88.69;102792.44;5027451;28;20045;-83
2022/01/30 06:40:33;;;;;;;20.25;3.63;;;;;;;2.23;89.67;102794.19;5028070;28;20027;-83
2022/01/30 06:42:58;;;;;;;20.25;4.05;;;;;;;2.28;89.65;102796.00;5025764;28;20034;-82
2022/01/30 06:45:23;;;;;;;19.23;4.18;;;;;;;2.34;89.44;102790.84;5028456;28;20029;-83
2022/01/30 06:47:51;;;;;;;21.88;4.40;;;;;;;2.47;88.97;102801.56;5029790;28;20080;-83
2022/01/30 06:50:17;;;;;;;22.73;4.15;;;;;;;2.52;88.82;102803.38;5028864;28;20033;-83
2022/01/30 06:52:42;;;;;;;21.98;3.90;;;;;;;2.50;88.69;102790.19;5025674;28;20128;-83
2022/01/30 06:55:08;;;;;;;24.50;4.25;;;;;;;2.66;87.85;102802.69;5020359;28;20037;-83
2022/01/30 06:57:34;;;;;;;17.00;3.55;;;;;;;2.72;87.66;102794.88;5028370;28;20033;-83
2022/01/30 06:59:59;;;;;;;19.30;4.30;;;;;;;2.84;87.22;102807.28;5025271;28;20036;-83
2022/01/30 07:02:24;;;;;;;18.23;4.35;;;;;;;2.95;86.36;102804.78;5036078;28;20466;-83
2022/01/30 07:04:49;;;;;;;20.48;4.00;;;;;;;3.01;85.89;102810.16;5028242;28;20116;-83
2022/01/30 07:07:15;;;;;;;22.42;4.10;;;;;;;3.06;85.66;102818.97;5037025;28;20446;-83
2022/01/30 07:09:41;;;;;;;14.77;3.55;;;;;;;3.12;85.26;102823.41;5026521;28;20029;-83
2022/01/30 07:12:06;;;;;;;13.52;3.15;;;;;;;3.07;85.10;102817.22;5025510;28;20051;-83
2022/01/30 07:14:32;;;;;;;21.15;4.88;;;;;;;3.04;84.71;102828.56;5025984;28;20371;-83
2022/01/30 07:16:57;;;;;;;18.88;3.47;;;;;;;2.95;85.15;102821.44;5039213;28;20021;-83
2022/01/30 07:19:23;;;;;;;18.42;3.65;;;;;;;2.90;85.07;102822.28;5036352;28;20180;-83
2022/01/30 07:21:48;;;;;;;15.00;3.25;;;;;;;2.84;85.15;102830.94;5028573;28;20021;-83
2022/01/30 07:24:14;;;;;;;10.93;3.80;;;;;;;2.77;85.20;102836.13;5024794;28;20026;-83
2022/01/30 07:26:39;;;;;;;17.98;3.50;;;;;;;2.70;85.57;102833.41;5028193;28;20108;-83
2022/01/30 07:29:05;;;;;;;21.48;3.92;;;;;;;2.67;85.43;102843.00;5028498;28;20025;-83
2022/01/30 07:31:32;;;;;;;20.00;3.65;;;;;;;2.67;85.72;102841.25;5044532;28;20021;-82
2022/01/30 07:33:57;;;;;;;15.30;3.53;;;;;;;2.73;85.36;102840.47;5026213;28;20037;-83
2022/01/30 07:36:23;;;;;;;16.05;4.07;;;;;;;2.79;85.45;102835.28;5028074;28;20033;-82
2022/01/30 07:38:48;;;;;;;17.42;3.63;;;;;;;2.89;85.21;102847.69;5027051;28;20507;-83
2022/01/30 07:41:14;;;;;;;17.33;3.92;;;;;;;2.87;85.25;102848.53;5026215;28;20034;-82
2022/01/30 07:43:39;;;;;;;19.48;3.60;;;;;;;2.88;85.36;102855.53;5026006;28;20055;-83
2022/01/30 07:46:04;;;;;;;14.40;3.72;;;;;;;2.89;85.28;102860.84;5010185;28;20029;-83
2022/01/30 07:48:30;;;;;;;19.63;4.25;;;;;;;2.92;85.29;102863.50;5027477;28;20030;-82
2022/01/30 07:50:56;;;;;;;17.38;3.20;;;;;;;2.88;85.17;102861.69;5027752;28;20033;-83
2022/01/30 07:53:21;;;;;;;17.02;3.92;;;;;;;2.86;85.22;102865.19;5025743;28;20534;-83
2022/01/30 07:55:46;;;;;;;20.08;3.90;;;;;;;2.83;84.98;102868.63;5026120;28;20049;-82
2022/01/30 07:58:12;;;;;;;18.05;3.55;;;;;;;2.81;85.12;102865.13;5026674;28;20032;-83
2022/01/30 08:00:39;;;;;;;14.70;2.88;;;;;;;2.81;84.87;102866.88;5028609;28;20077;-83
2022/01/30 08:03:04;;;;;;;17.52;3.70;;;;;;;2.73;84.84;102856.25;5027386;28;20076;-82
2022/01/30 08:05:29;;;;;;;18.88;4.38;;;;;;;2.75;84.83;102871.16;5024594;28;20017;-82
2022/01/30 08:07:54;;;;;;;22.15;4.22;;;;;;;2.72;84.89;102862.38;5027029;28;20467;-83
2022/01/30 08:10:20;;;;;;;15.65;3.13;;;;;;;2.80;84.88;102883.50;5027611;28;20021;-83
2022/01/30 08:12:45;;;;;;;24.33;4.22;;;;;;;2.80;84.80;102887.03;5028063;28;20026;-82
2022/01/30 08:15:11;;;;;;;19.00;3.40;;;;;;;2.83;84.62;102884.41;5025247;28;20029;-82
2022/01/30 08:17:37;;;;;;;18.60;4.18;;;;;;;2.82;84.69;102884.41;5030698;28;20029;-83
2022/01/30 08:20:05;;;;;;;15.20;4.30;;;;;;;2.83;84.42;102883.53;5031226;28;20028;-81
2022/01/30 08:22:31;;;;;;;17.35;3.50;;;;;;;2.87;84.37;102890.59;5030942;28;20079;-82
2022/01/30 08:24:56;;;;;;;17.17;3.42;;;;;;;2.88;84.01;102885.34;5028478;28;20044;-82
2022/01/30 08:27:22;;;;;;;24.60;4.32;;;;;;;2.91;83.86;102888.03;5013645;28;20037;-82
2022/01/30 08:29:47;;;;;;;18.20;4.05;;;;;;;2.88;83.97;102882.72;5031696;28;20033;-83
2022/01/30 08:32:13;;;;;;;18.02;3.17;;;;;;;2.91;84.11;102888.03;5031059;28;20108;-82
2022/01/30 08:34:39;;;;;;;16.30;4.00;;;;;;;2.92;83.80;102889.81;5028787;28;20434;-82
2022/01/30 08:37:05;;;;;;;20.58;3.63;;;;;;;2.98;83.87;102894.28;5031029;28;20029;-83
2022/01/30 08:39:30;;;;;;;24.98;4.35;;;;;;;2.96;83.87;102885.47;5031390;28;20092;-82
2022/01/30 08:41:56;;;;;;;20.55;3.60;;;;;;;3.03;83.67;102891.72;5029189;28;20033;-82
2022/01/30 08:44:21;;;;;;;16.00;4.03;;;;;;;3.05;83.55;102885.56;5028346;28;20025;-82
2022/01/30 08:46:46;;;;;;;18.30;3.78;;;;;;;3.12;82.85;102897.09;5026385;28;20057;-82
2022/01/30 08:49:14;;;;;;;14.07;3.55;;;;;;;3.16;83.33;102891.00;5011861;28;20490;-82
2022/01/30 08:51:39;;;;;;;22.35;3.75;;;;;;;3.29;82.25;102890.28;5028515;28;20087;-82
2022/01/30 08:54:04;;;;;;;18.67;3.08;;;;;;;3.53;82.04;102899.34;5029557;28;20049;-82
2022/01/30 08:56:30;;;;;;;25.13;5.18;;;;;;;3.70;81.30;102898.63;5024414;28;20021;-81
2022/01/30 08:58:55;;;;;;;23.17;4.55;;;;;;;3.83;81.27;102890.88;5012094;28;20048;-82
2022/01/30 09:01:20;;;;;;;15.98;3.83;;;;;;;3.90;80.04;102898.84;5009274;28;20032;-82
2022/01/30 09:03:46;;;;;;;22.33;4.13;;;;;;;3.92;80.23;102897.09;5029863;28;20498;-83
2022/01/30 09:06:11;;;;;;;21.40;4.15;;;;;;;4.06;80.08;102891.97;5028082;28;20901;-83
2022/01/30 09:08:36;;;;;;;17.48;3.83;;;;;;;4.20;78.74;102900.00;5030471;28;20041;-82
2022/01/30 09:11:02;;;;;;;20.50;4.45;;;;;;;4.29;79.07;102900.06;5025352;28;20026;-82
2022/01/30 09:13:27;;;;;;;30.17;6.70;;;;;;;4.33;77.98;102899.22;5027248;28;20478;-83
2022/01/30 09:15:57;;;;;;;17.40;4.57;;;;;;;4.36;77.93;102896.59;5026839;28;20027;-83
2022/01/30 09:18:23;;;;;;;16.50;3.78;;;;;;;4.53;77.75;102904.63;5028661;28;20034;-83
2022/01/30 09:20:49;;;;;;;17.20;4.35;;;;;;;4.61;77.52;102907.34;5028979;28;20182;-83
2022/01/30 09:23:14;;;;;;;19.88;4.13;;;;;;;4.52;76.88;102917.81;5028577;28;20029;-83
2022/01/30 09:25:40;;;;;;;19.20;4.57;;;;;;;4.48;76.93;102928.34;5009068;28;20033;-82
2022/01/30 09:28:06;;;;;;;29.98;4.75;;;;;;;4.53;77.40;102936.28;5028372;28;20076;-83
2022/01/30 09:30:32;;;;;;;23.25;4.22;;;;;;;4.57;76.37;102926.66;5027836;28;20025;-83
2022/01/30 09:32:57;;;;;;;20.80;4.43;;;;;;;4.75;76.22;102918.84;5020307;28;20029;-82
2022/01/30 09:35:23;;;;;;;19.45;4.35;;;;;;;4.85;75.94;102925.06;5028485;28;20120;-82
2022/01/30 09:37:48;;;;;;;15.40;4.35;;;;;;;4.88;75.57;102918.03;5027668;28;20028;-83
2022/01/30 09:40:14;;;;;;;20.08;4.30;;;;;;;4.85;75.49;102927.69;5029732;28;20053;-83
2022/01/30 09:42:44;;;;;;;19.33;3.78;;;;;;;4.99;75.72;102934.84;5028381;28;20025;-83
2022/01/30 09:45:10;;;;;;;19.98;4.82;;;;;;;5.26;74.68;102935.84;5025296;28;20029;-83
2022/01/30 09:47:36;;;;;;;17.17;4.20;;;;;;;5.42;73.19;102928.88;5029584;28;20029;-83
2022/01/30 09:50:04;;;;;;;21.08;4.57;;;;;;;5.47;72.70;102935.03;5028841;28;20450;-82
2022/01/30 09:52:29;;;;;;;20.38;4.13;;;;;;;5.56;71.94;102942.13;5025105;28;20076;-82
2022/01/30 09:54:54;;;;;;;16.35;3.80;;;;;;;5.54;72.03;102944.78;5029540;28;20045;-83
2022/01/30 09:57:20;;;;;;;22.77;5.55;;;;;;;5.55;70.62;102943.00;5029044;28;20033;-84
2022/01/30 09:59:46;;;;;;;24.17;5.53;;;;;;;5.49;71.21;102946.53;5028389;28;20021;-84
2022/01/30 10:02:12;;;;;;;23.85;4.82;;;;;;;5.53;70.54;102948.28;5026598;28;20472;-84
2022/01/30 10:04:39;;;;;;;25.88;4.82;;;;;;;5.77;70.61;102944.84;5028497;28;20092;-84
2022/01/30 10:07:18;;;;;;;24.58;4.13;;;;;;;6.02;69.92;102950.19;5028720;28;20031;-83
2022/01/30 10:09:45;;;;;;;25.35;5.10;;;;;;;6.07;69.41;102948.47;5028934;28;20084;-83
2022/01/30 10:12:16;;;;;;;20.90;4.18;;;;;;;6.19;68.16;102949.38;5024603;28;20116;-83
2022/01/30 10:15:07;;;;;;;26.00;6.72;;;;;;;6.39;69.93;102956.41;5024087;28;20029;-83
2022/01/30 10:17:46;;;;;;;24.80;4.53;;;;;;;6.39;68.49;102967.00;5022237;28;20048;-83
2022/01/30 10:20:16;;;;;;;24.00;6.25;;;;;;;6.36;67.45;102978.47;5027380;28;20039;-83
2022/01/30 10:23:08;;;;;;;21.02;4.43;;;;;;;6.24;68.05;102979.34;5025473;28;20033;-83
2022/01/30 10:25:36;;;;;;;20.67;4.28;;;;;;;6.03;67.36;102983.72;5028297;28;20036;-83
2022/01/30 10:28:11;;;;;;;29.17;4.97;;;;;;;5.89;67.91;102975.69;5025806;28;20022;-83
2022/01/30 10:30:47;;;;;;;25.83;5.10;;;;;;;5.90;68.08;102972.19;5027709;28;20029;-83
2022/01/30 10:33:15;;;;;;;28.23;5.90;;;;;;;6.11;67.07;102971.38;5027898;28;20029;-83
2022/01/30 10:35:54;;;;;;;28.33;4.45;;;;;;;6.19;67.38;102973.16;5028562;28;20029;-83
2022/01/30 10:38:27;;;;;;;20.30;4.15;;;;;;;6.15;67.65;102973.16;5029331;28;20030;-82
2022/01/30 10:41:11;;;;;;;22.27;4.70;;;;;;;6.09;66.95;102973.13;5023943;28;20026;-83
2022/01/30 10:43:51;;;;;;;18.83;4.82;;;;;;;6.10;67.88;102969.59;5028348;28;20025;-83
2022/01/30 10:46:22;;;;;;;25.55;4.57;;;;;;;6.15;66.74;102974.03;5008838;28;20034;-83
2022/01/30 10:48:56;;;;;;;19.88;4.50;;;;;;;6.27;67.45;102978.47;5013163;28;20030;-83
2022/01/30 10:51:22;;;;;;;22.25;4.35;;;;;;;6.31;66.69;102974.94;5008900;28;20088;-83
2022/01/30 10:53:50;;;;;;;23.73;4.55;;;;;;;6.25;66.78;102964.34;5018900;28;20053;-84
2022/01/30 10:56:25;;;;;;;30.40;4.50;;;;;;;6.19;66.94;102965.22;5027336;28;20087;-84
2022/01/30 10:59:21;;;;;;;18.65;5.00;;;;;;;6.18;67.96;102963.44;5028694;28;20108;-84
2022/01/30 11:01:51;;;;;;;21.55;4.57;;;;;;;6.18;66.94;102955.50;5024467;28;20442;-85
2022/01/30 11:04:34;;;;;;;24.25;5.30;;;;;;;6.33;68.49;102956.41;5028531;28;20033;-83
2022/01/30 11:07:01;;;;;;;29.17;5.43;;;;;;;6.48;66.30;102961.72;5028271;28;20025;-83
2022/01/30 11:09:33;;;;;;;26.85;6.68;;;;;;;6.61;65.26;102952.91;5028540;28;20277;-84
2022/01/30 11:12:05;;;;;;;20.52;4.38;;;;;;;6.82;64.75;102938.75;5026515;28;20021;-79
2022/01/30 11:15:05;;;;;;;19.88;4.38;;;;;;;6.92;65.15;102942.25;5028090;28;20072;-79
2022/01/30 11:17:21;;;;;;;28.33;4.55;;;;;;;6.88;64.87;102935.22;5026800;28;20044;-79
2022/01/30 11:19:49;;;;;;;24.00;5.15;;;;;;;6.81;64.03;102934.31;4999366;28;20033;-79
2022/01/30 11:22:16;;;;;;;29.08;5.75;;;;;;;6.65;64.63;102919.38;5028033;28;20025;-82
2022/01/30 11:24:47;;;;;;;26.90;6.13;;;;;;;6.67;64.83;102925.53;5010316;28;20029;-82
2022/01/30 11:27:14;;;;;;;18.33;4.07;;;;;;;6.69;64.28;102927.31;5028224;28;20112;-82
2022/01/30 11:29:40;;;;;;;23.95;4.60;;;;;;;6.70;63.83;102930.84;5024346;28;20042;-82
2022/01/30 11:32:07;;;;;;;23.17;5.07;;;;;;;6.71;64.33;102927.28;5027923;28;20029;-81
2022/01/30 11:34:37;;;;;;;20.02;5.32;;;;;;;6.70;64.75;102930.84;5025164;28;20038;-80
2022/01/30 11:37:04;;;;;;;24.65;4.60;;;;;;;6.70;63.67;102925.53;5024538;28;20034;-79
2022/01/30 11:39:30;;;;;;;28.30;7.35;;;;;;;6.59;62.88;102938.78;5027990;28;20025;-81
2022/01/30 11:42:14;;;;;;;25.60;5.10;;;;;;;6.51;64.16;102934.38;5028062;28;20037;-80
2022/01/30 11:44:40;;;;;;;;;;;;;;;6.58;66.29;102928.19;5025517;28;20036;-80
2022/01/30 11:47:07;;;;;;;24.40;4.68;;;;;;;6.66;62.25;102927.31;5027487;28;19925;-80
2022/01/30 11:50:00;;;;;;;18.25;4.63;;;;;;;6.77;62.38;102921.09;5027746;28;20026;-81
2022/01/30 11:52:46;;;;;;;18.67;3.90;;;;;;;6.88;62.90;102916.69;5009473;28;20029;-80
2022/01/30 11:55:37;;;;;;;17.45;3.92;;;;;;;6.98;61.42;102914.00;5023276;28;20870;-82
2022/01/30 11:58:02;;;;;;;25.92;7.47;;;;;;;7.03;60.68;102915.78;5028530;28;20462;-85
2022/01/30 12:00:40;;;;;;;22.90;4.47;;;;;;;7.09;61.90;102923.69;5029917;28;20112;-81
2022/01/30 12:03:22;;;;;;;24.25;4.57;;;;;;;7.14;61.89;102911.28;5027493;28;20025;-82
2022/01/30 12:05:47;;;;;;;22.05;4.00;;;;;;;7.07;60.29;102913.09;5030673;28;20032;-81
2022/01/30 12:08:48;;;;;;;28.02;4.22;;;;;;;7.04;61.13;102915.75;5030204;28;20041;-80
2022/01/30 12:11:43;;;;;;;23.88;4.95;;;;;;;6.94;60.52;102917.56;5024494;28;20036;-81
2022/01/30 12:14:21;;;;;;;20.48;4.20;;;;;;;6.74;60.73;102912.31;5029417;28;20037;-83
2022/01/30 12:16:48;;;;;;;20.48;4.43;;;;;;;6.64;60.20;102904.38;5030447;28;20410;-82